Govans, Maryland
Current Conditions -  °F | °C
As of 6:55 AM on Monday 26 Jan 2015 (Local Time) from KMTN Reporting Station
Broken Clouds Broken Clouds  
Wind Chill: -2°   Ceiling: 4000
Heat Index:   Visibility: 10mi
Dew Point: -2°   Wind: 7mph
Humidity: 81%   Direction: 50°NE
Pressure: 29.87"   Gusts: 18mph
Location:  39.3674°N, 76.6149°W
Report Text: KMTN 261155Z 05006G16KT 10SM BKN040 01/M02 A2987
Loading
Personal Weather Stations






























Interactive Weather Map New forecast layout! Learn more

10-Day Weather Forecast

Advertisements
Track Severe Weather on mobile